Washington Express — WDD3826 — position and weather

sailwx.info

Track history (hours):
 
Tides and Currents Weather Stations Pressure Air Temp Water Temp Dewpoint Dewpoint Depression Visibility Wind Speed Wind Dir Waves Ship Positions

Washington Express

Owner: Marine Transport Management - Nick Orfanidis, Jacksonville, FL. More information available from US FCC via Universal Licensing System.

Last reported at 2018-Jul-22 06:05 UTC. Time now 2018-Jul-22 10:25 UTC.
Position N 25°15' W 080°05'.

Type: Ship (hazmat cat A). MMSI: 367136710.

Date/timePositionNaut miles runAvg speedWind from/ knotsBaromVisibWave heightAir tempDewpointWater temp
2018-Jul-22 06:05N 25°15' W 080°05'219.2
2018-Jul-22 05:58N 25°17' W 080°04'818.1
2018-Jul-22 05:31N 25°25' W 080°02'918.3
2018-Jul-22 05:00N 25°34' W 080°02'918.0
2018-Jul-22 04:31N 25°43' W 080°01'917.8
2018-Jul-22 04:00N 25°52' W 080°01'917.7
2018-Jul-22 03:31N 26°01' W 080°02'611.5
2018-Jul-22 03:00N 26°06' W 080°06'2 3.0
2018-Jul-22 02:30N 26°04' W 080°07'0 0.1
2018-Jul-22 02:00N 26°04' W 080°07'0 0.0
2018-Jul-22 01:22N 26°04' W 080°07'0 0.0
2018-Jul-22 00:55N 26°04' W 080°07'0 0.0
2018-Jul-22 00:25N 26°04' W 080°07'0 0.0
2018-Jul-21 23:52N 26°04' W 080°07'0 0.0
2018-Jul-21 23:22N 26°04' W 080°07'0 0.0
2018-Jul-21 22:55N 26°04' W 080°07'0 0.0
2018-Jul-21 22:25N 26°04' W 080°07'0 0.0
2018-Jul-21 21:55N 26°04' W 080°07'0 0.0
2018-Jul-21 21:22N 26°04' W 080°07'0 0.0
2018-Jul-21 20:55N 26°04' W 080°07'0 0.0
2018-Jul-21 20:25N 26°04' W 080°07'0 0.0
2018-Jul-21 19:58N 26°04' W 080°07'0 0.0
2018-Jul-21 19:28N 26°04' W 080°07'0 0.0
2018-Jul-21 18:58N 26°04' W 080°07'0 0.0
2018-Jul-21 18:28N 26°04' W 080°07'0 0.0
2018-Jul-21 17:58N 26°04' W 080°07'0 0.0
2018-Jul-21 17:28N 26°04' W 080°07'0 0.0
2018-Jul-21 16:58N 26°04' W 080°07'0 0.0
2018-Jul-21 16:28N 26°04' W 080°07'0 0.0
2018-Jul-21 15:58N 26°04' W 080°07'0 0.0
2018-Jul-21 15:30N 26°04' W 080°07'1 2.7
2018-Jul-21 15:00N 26°06' W 080°06'5 9.0
2018-Jul-21 14:30N 26°08' W 080°02'7 7.5
2018-Jul-21 13:30N 26°11' W 079°54'4 9.0
2018-Jul-21 13:00N 26°12' W 079°50'4 8.7
2018-Jul-21 12:30N 26°16' W 079°49'715.0
2018-Jul-21 12:00N 26°23' W 079°50'816.1
2018-Jul-21 11:30N 26°31' W 079°53'815.8
2018-Jul-21 11:00N 26°38' W 079°56'815.7
2018-Jul-21 10:31N 26°46' W 079°56'815.8
2018-Jul-21 10:01N 26°54' W 079°57'815.7
2018-Jul-21 09:31N 27°02' W 079°56'815.5
2018-Jul-21 09:00N 27°10' W 079°56'815.5
2018-Jul-21 08:28N 27°18' W 079°56'32418.8
2018-Jul-20 15:10N 32°42' W 079°46'315.9
2018-Jul-20 15:00N 32°44' W 079°49'612.8
2018-Jul-20 14:30N 32°47' W 079°55'4 8.6
2018-Jul-20 14:00N 32°51' W 079°57'3 1.1
2018-Jul-20 11:27N 32°54' W 079°57'0 0.0
2018-Jul-20 10:57N 32°54' W 079°57'0 0.0
2018-Jul-20 10:30N 32°54' W 079°57'0 0.0
2018-Jul-20 09:58N 32°54' W 079°57'0 0.0
2018-Jul-20 09:28N 32°54' W 079°57'0 0.0
2018-Jul-20 08:57N 32°54' W 079°57'0 0.0
2018-Jul-20 07:45N 32°54' W 079°57'0 0.0
2018-Jul-20 07:21N 32°54' W 079°58'0 0.0
2018-Jul-20 04:15N 32°54' W 079°58'0 0.0
2018-Jul-20 03:55N 32°54' W 079°57'0 0.0
2018-Jul-20 03:27N 32°54' W 079°58'0 0.0
2018-Jul-20 02:18N 32°54' W 079°57'0 0.0
2018-Jul-20 01:03N 32°54' W 079°57'0 0.1
2018-Jul-20 01:01N 32°54' W 079°58'0 0.0
2018-Jul-19 22:25N 32°54' W 079°57'2 4.4
2018-Jul-19 21:56N 32°52' W 079°58'3 6.7
2018-Jul-19 21:30N 32°50' W 079°56'4 7.9
2018-Jul-19 21:00N 32°46' W 079°53'17619.5
2018-Jul-19 12:00N 32°42' W 076°24'5618.6 320 / 101010.810.8 25.022.029.0
2018-Jul-19 09:00N 32°48' W 075°18'41619.8 270 / 161010.4 5.4 26.023.123.0
2018-Jul-18 12:00N 34°24' W 067°12'6220.7 210 / 201016.1 5.4 26.021.527.0
2018-Jul-18 09:00N 34°42' W 066°00'51121.3 230 / 171015.7 5.4 25.023.527.0
2018-Jul-17 09:00N 38°30' W 056°30'47119.6 260 / 181017.8 5.4 25.022.025.0
2018-Jul-16 09:00N 41°12' W 046°54'5117.0 230 / 161025.410.8 27.025.624.0
2018-Jul-16 06:00N 41°24' W 045°48'44721.3 230 / 71026.1 5.4 25.025.027.0
2018-Jul-15 09:00N 42°36' W 035°54'   300 / 161025.510.8 18.016.323.0
2018-Jul-12 12:19N 49°43' W 004°19'721.8
2018-Jul-12 12:01N 49°46' W 004°09'1222.3
2018-Jul-12 11:29N 49°50' W 003°53'1122.4
2018-Jul-12 11:01N 49°53' W 003°37'1122.0
2018-Jul-12 10:31N 49°56' W 003°20'1121.3
2018-Jul-12 10:01N 49°60' W 003°05'1120.5
2018-Jul-12 09:30N 50°02' W 002°49'1019.9
2018-Jul-12 09:00N 50°05' W 002°34'1019.2
2018-Jul-12 08:30N 50°07' W 002°20'1018.3
2018-Jul-12 07:59N 50°10' W 002°05'1217.6
2018-Jul-12 07:18N 50°14' W 001°48'1217.5
2018-Jul-12 06:38N 50°17' W 001°30'617.6
2018-Jul-12 06:19N 50°19' W 001°22'  
Track history (hours):
 
Tides and Currents Weather Stations Pressure Air Temp Water Temp Dewpoint Dewpoint Depression Visibility Wind Speed Wind Dir Waves Ship Positions

Washington Express

Owner: Marine Transport Management - Nick Orfanidis, Jacksonville, FL. More information available from US FCC via Universal Licensing System.

Last reported at 2018-Jul-22 06:05 UTC. Time now 2018-Jul-22 10:25 UTC.
Position N 25°15' W 080°05'.

Type: Ship (hazmat cat A). MMSI: 367136710.

Date/timePositionNaut miles runAvg speedWind from/ knotsBaromVisibWave heightAir tempDewpointWater temp
2018-Jul-22 06:05N 25°15' W 080°05'219.2
2018-Jul-22 05:58N 25°17' W 080°04'818.1
2018-Jul-22 05:31N 25°25' W 080°02'918.3
2018-Jul-22 05:00N 25°34' W 080°02'918.0
2018-Jul-22 04:31N 25°43' W 080°01'917.8
2018-Jul-22 04:00N 25°52' W 080°01'917.7
2018-Jul-22 03:31N 26°01' W 080°02'611.5
2018-Jul-22 03:00N 26°06' W 080°06'2 3.0
2018-Jul-22 02:30N 26°04' W 080°07'0 0.1
2018-Jul-22 02:00N 26°04' W 080°07'0 0.0
2018-Jul-22 01:22N 26°04' W 080°07'0 0.0
2018-Jul-22 00:55N 26°04' W 080°07'0 0.0
2018-Jul-22 00:25N 26°04' W 080°07'0 0.0
2018-Jul-21 23:52N 26°04' W 080°07'0 0.0
2018-Jul-21 23:22N 26°04' W 080°07'0 0.0
2018-Jul-21 22:55N 26°04' W 080°07'0 0.0
2018-Jul-21 22:25N 26°04' W 080°07'0 0.0
2018-Jul-21 21:55N 26°04' W 080°07'0 0.0
2018-Jul-21 21:22N 26°04' W 080°07'0 0.0
2018-Jul-21 20:55N 26°04' W 080°07'0 0.0
2018-Jul-21 20:25N 26°04' W 080°07'0 0.0
2018-Jul-21 19:58N 26°04' W 080°07'0 0.0
2018-Jul-21 19:28N 26°04' W 080°07'0 0.0
2018-Jul-21 18:58N 26°04' W 080°07'0 0.0
2018-Jul-21 18:28N 26°04' W 080°07'0 0.0
2018-Jul-21 17:58N 26°04' W 080°07'0 0.0
2018-Jul-21 17:28N 26°04' W 080°07'0 0.0
2018-Jul-21 16:58N 26°04' W 080°07'0 0.0
2018-Jul-21 16:28N 26°04' W 080°07'0 0.0
2018-Jul-21 15:58N 26°04' W 080°07'0 0.0
2018-Jul-21 15:30N 26°04' W 080°07'1 2.7
2018-Jul-21 15:00N 26°06' W 080°06'5 9.0
2018-Jul-21 14:30N 26°08' W 080°02'7 7.5
2018-Jul-21 13:30N 26°11' W 079°54'4 9.0
2018-Jul-21 13:00N 26°12' W 079°50'4 8.7
2018-Jul-21 12:30N 26°16' W 079°49'715.0
2018-Jul-21 12:00N 26°23' W 079°50'816.1
2018-Jul-21 11:30N 26°31' W 079°53'815.8
2018-Jul-21 11:00N 26°38' W 079°56'815.7
2018-Jul-21 10:31N 26°46' W 079°56'815.8
2018-Jul-21 10:01N 26°54' W 079°57'815.7
2018-Jul-21 09:31N 27°02' W 079°56'815.5
2018-Jul-21 09:00N 27°10' W 079°56'815.5
2018-Jul-21 08:28N 27°18' W 079°56'32418.8
2018-Jul-20 15:10N 32°42' W 079°46'315.9
2018-Jul-20 15:00N 32°44' W 079°49'612.8
2018-Jul-20 14:30N 32°47' W 079°55'4 8.6
2018-Jul-20 14:00N 32°51' W 079°57'3 1.1
2018-Jul-20 11:27N 32°54' W 079°57'0 0.0
2018-Jul-20 10:57N 32°54' W 079°57'0 0.0
2018-Jul-20 10:30N 32°54' W 079°57'0 0.0
2018-Jul-20 09:58N 32°54' W 079°57'0 0.0
2018-Jul-20 09:28N 32°54' W 079°57'0 0.0
2018-Jul-20 08:57N 32°54' W 079°57'0 0.0
2018-Jul-20 07:45N 32°54' W 079°57'0 0.0
2018-Jul-20 07:21N 32°54' W 079°58'0 0.0
2018-Jul-20 04:15N 32°54' W 079°58'0 0.0
2018-Jul-20 03:55N 32°54' W 079°57'0 0.0
2018-Jul-20 03:27N 32°54' W 079°58'0 0.0
2018-Jul-20 02:18N 32°54' W 079°57'0 0.0
2018-Jul-20 01:03N 32°54' W 079°57'0 0.1
2018-Jul-20 01:01N 32°54' W 079°58'0 0.0
2018-Jul-19 22:25N 32°54' W 079°57'2 4.4
2018-Jul-19 21:56N 32°52' W 079°58'3 6.7
2018-Jul-19 21:30N 32°50' W 079°56'4 7.9
2018-Jul-19 21:00N 32°46' W 079°53'17619.5
2018-Jul-19 12:00N 32°42' W 076°24'5618.6 320 / 101010.810.8 25.022.029.0
2018-Jul-19 09:00N 32°48' W 075°18'41619.8 270 / 161010.4 5.4 26.023.123.0
2018-Jul-18 12:00N 34°24' W 067°12'6220.7 210 / 201016.1 5.4 26.021.527.0
2018-Jul-18 09:00N 34°42' W 066°00'51121.3 230 / 171015.7 5.4 25.023.527.0
2018-Jul-17 09:00N 38°30' W 056°30'47119.6 260 / 181017.8 5.4 25.022.025.0
2018-Jul-16 09:00N 41°12' W 046°54'5117.0 230 / 161025.410.8 27.025.624.0
2018-Jul-16 06:00N 41°24' W 045°48'44721.3 230 / 71026.1 5.4 25.025.027.0
2018-Jul-15 09:00N 42°36' W 035°54'   300 / 161025.510.8 18.016.323.0
2018-Jul-12 12:19N 49°43' W 004°19'721.8
2018-Jul-12 12:01N 49°46' W 004°09'1222.3
2018-Jul-12 11:29N 49°50' W 003°53'1122.4
2018-Jul-12 11:01N 49°53' W 003°37'1122.0
2018-Jul-12 10:31N 49°56' W 003°20'1121.3
2018-Jul-12 10:01N 49°60' W 003°05'1120.5
2018-Jul-12 09:30N 50°02' W 002°49'1019.9
2018-Jul-12 09:00N 50°05' W 002°34'1019.2
2018-Jul-12 08:30N 50°07' W 002°20'1018.3
2018-Jul-12 07:59N 50°10' W 002°05'1217.6
2018-Jul-12 07:18N 50°14' W 001°48'1217.5
2018-Jul-12 06:38N 50°17' W 001°30'617.6
2018-Jul-12 06:19N 50°19' W 001°22'  

Dump ship's entire track history